Brooks, Iowa
Current Conditions -  °F | °C
As of 4:15 AM on Tuesday 21 Oct 2014 (Local Time) from KCSQ Reporting Station
Clear Clear  
Wind Chill: 43°   Ceiling: Unl
Heat Index: 43°   Visibility: 10mi
Dew Point: 39°   Wind: 0mph
Humidity: 87%   Direction: NA
Pressure: 30.09"   Gusts: NA
Location:  41.0285°N, 94.7568°W
Report Text: KCSQ 210915Z AUTO 00000KT 10SM CLR 06/04 A3009 RMK AO2
Loading
Personal Weather Stations






























Interactive Weather Map
Tropical Storm Tracking
New forecast layout! Learn more

10-Day Weather Forecast

Advertisements
Track Severe Weather on mobile